Friday, January 19, 2018, 3:58 AM GMT
Back to Local

CWNC, Cobourg, Ont.

Location: , , Canada Lat: 43.95
Local Time: 3:58 AM GMT ( 3:58 GMT) Lon: -78.167
Time Zone: GMT Elev: 255 ft

Show me the last for .
Show Coded

Time T Td Feel RH Dir Speed Gust Alt SLP Vis Weather Sky Remarks
2018-01-19 03:00 29 22 13 75 260° 18 28 - 29.93 0 Peak wind: 27 mph (24 kts) from 270° at 56 min
2018-01-19 02:00 28 23 14 79 250° 18 24 - 29.92 0 Peak wind: 28 mph (25 kts) from 260° at 36 min
2018-01-19 01:00 28 22 13 78 250° 20 26 - 29.95 0 Peak wind: 26 mph (23 kts) from 240° at 59 min
2018-01-19 00:00 24 16 20 70 310° 3 - - 29.97 0 None
2018-01-18 23:00 24 16 16 70 320° 7 - - 29.98 0 None
2018-01-18 22:00 24 16 16 70 300° 7 - - 29.98 0 Peak wind: 20 mph (18 kts) from 250° at 00 min
2018-01-18 21:00 26 18 11 72 270° 14 22 - 29.98 0 Peak wind: 26 mph (23 kts) from 260° at 03 min
2018-01-18 20:00 26 19 11 74 270° 16 24 - 29.98 0 Peak wind: 26 mph (23 kts) from 260° at 43 min
2018-01-18 19:00 25 19 10 76 270° 15 23 - 29.98 0 Peak wind: 25 mph (22 kts) from 260° at 21 min
2018-01-18 18:00 25 19 9 77 280° 17 25 - 29.98 0 Peak wind: 28 mph (25 kts) from 290° at 20 min
2018-01-18 17:00 24 17 9 74 280° 13 21 - 30.00 0 Peak wind: 20 mph (18 kts) from 280° at 39 min
2018-01-18 16:00 22 13 7 67 290° 12 21 - 30.02 0 Peak wind: 20 mph (18 kts) from 300° at 29 min
2018-01-18 15:00 22 14 7 71 290° 10 18 - 30.01 0 Peak wind: 19 mph (17 kts) from 280° at 19 min
2018-01-18 14:00 22 13 11 68 290° 9 - - 30.00 0 Peak wind: 20 mph (18 kts) from 300° at 02 min
2018-01-18 13:00 22 14 7 69 290° 13 23 - 29.99 0 Peak wind: 27 mph (24 kts) from 270° at 24 min
2018-01-18 12:00 22 14 13 69 290° 8 - - 29.99 0 None
2018-01-18 11:00 21 12 11 68 300° 8 - - 30.00 0 None
2018-01-18 10:00 22 13 8 68 300° 8 17 - 30.00 0 Peak wind: 31 mph (27 kts) from 280° at 07 min
2018-01-18 09:00 25 17 8 71 270° 20 30 - 30.01 0 Peak wind: 34 mph (30 kts) from 260° at 35 min
2018-01-18 08:00 26 19 9 73 260° 25 33 - 30.02 0 Peak wind: 37 mph (33 kts) from 260° at 17 min
2018-01-18 07:00 27 20 9 75 260° 26 38 - 30.02 0 Peak wind: 40 mph (35 kts) from 260° at 06 min
2018-01-18 06:00 26 20 8 76 260° 30 39 - 30.02 0 Peak wind: 39 mph (34 kts) from 260° at 30 min
2018-01-18 05:00 26 19 8 73 260° 29 40 - 30.05 0 Peak wind: 42 mph (37 kts) from 250° at 14 min
2018-01-18 04:00 26 20 8 76 260° 32 38 - 30.06 0 Peak wind: 40 mph (35 kts) from 260° at 29 min

Support USWX by starting your Amazon purchase here.